Time;durP1;ratioP1;P1;durP2;ratioP2;P2;SDS_P1;SDS_P2;PMS_P1;PMS_P2;Temp;Humidity;BMP_temperature;BMP_pressure;BME280_temperature;BME280_humidity;BME280_pressure;Samples;Min_cycle;Max_cycle;Signal;HPM_P1;HPM_P2
2024/04/05 00:00:51;;;;;;;;;;;;;;;21.56;29.95;98008.22;5093011;28;1913;-76
2024/04/05 00:03:17;;;;;;;;;;;;;;;21.59;30.00;98000.84;5059239;28;1142;-76
2024/04/05 00:05:42;;;;;;;;;;;;;;;21.62;30.13;98007.69;5076378;28;1030;-75
2024/04/05 00:08:08;;;;;;;;;;;;;;;21.60;30.06;97996.78;5059622;28;1184;-76
2024/04/05 00:10:34;;;;;;;;;;;;;;;21.81;29.72;98001.88;5076347;28;998;-76
2024/04/05 00:12:59;;;;;;;;;;;;;;;21.71;29.72;98005.81;5043163;28;1124;-76
2024/04/05 00:15:25;;;;;;;;;;;;;;;21.50;29.94;98003.50;5093451;28;1026;-76
2024/04/05 00:17:51;;;;;;;;;;;;;;;21.52;29.89;98003.88;5076698;28;1034;-76
2024/04/05 00:20:17;;;;;;;;;;;;;;;21.81;29.39;98004.72;5076374;28;1906;-76
2024/04/05 00:22:42;;;;;;;;;;;;;;;21.65;29.79;97996.22;5093483;28;943;-76
2024/04/05 00:25:08;;;;;;;;;;;;;;;21.63;29.70;98003.59;5052473;28;2352;-76
2024/04/05 00:27:33;;;;;;;;;;;;;;;21.59;30.21;97998.03;5052791;28;954;-76
2024/04/05 00:30:02;;;;;;;;;;;;;;;21.63;29.86;98007.22;5052687;28;955;-76
2024/04/05 00:32:28;;;;;;;;;;;;;;;21.64;30.05;98008.81;5021031;28;941;-76
2024/04/05 00:34:53;;;;;;;;;;;;;;;21.52;30.24;98003.88;5066032;28;1019;-76
2024/04/05 00:37:19;;;;;;;;;;;;;;;21.63;29.95;98001.56;5033162;28;1068;-76
2024/04/05 00:39:44;;;;;;;;;;;;;;;21.46;30.15;97997.97;5016540;28;1973;-76
2024/04/05 00:42:10;;;;;;;;;;;;;;;21.72;30.07;98004.56;5032684;28;1030;-75
2024/04/05 00:44:35;;;;;;;;;;;;;;;21.63;30.05;97995.91;5016495;28;1250;-76
2024/04/05 00:47:01;;;;;;;;;;;;;;;21.90;29.55;97998.38;5032890;28;1134;-75
2024/04/05 00:49:27;;;;;;;;;;;;;;;21.65;30.33;97999.06;5016269;28;1020;-75
2024/04/05 00:51:52;;;;;;;;;;;;;;;21.68;30.17;98003.84;5049238;28;1098;-77
2024/04/05 00:54:18;;;;;;;;;;;;;;;21.76;29.81;97999.59;5049325;28;962;-76
2024/04/05 00:56:43;;;;;;;;;;;;;;;21.71;30.11;98002.16;5032826;28;1255;-76
2024/04/05 00:59:10;;;;;;;;;;;;;;;21.75;30.14;98008.50;5032804;28;1110;-76
2024/04/05 01:01:35;;;;;;;;;;;;;;;21.83;29.85;98010.72;5035365;28;1914;-76
2024/04/05 01:04:01;;;;;;;;;;;;;;;21.75;30.13;98006.47;5055356;28;1115;-76
2024/04/05 01:06:26;;;;;;;;;;;;;;;21.62;30.16;98008.47;5087414;28;838;-76
2024/04/05 01:08:52;;;;;;;;;;;;;;;21.58;30.17;98004.94;5087098;28;1140;-76
2024/04/05 01:11:18;;;;;;;;;;;;;;;21.48;30.62;98000.34;5052533;28;1261;-75
2024/04/05 01:13:44;;;;;;;;;;;;;;;21.67;30.03;98013.59;5052463;28;1087;-75
2024/04/05 01:16:10;;;;;;;;;;;;;;;21.65;30.29;97999.06;5054646;28;924;-76
2024/04/05 01:18:36;;;;;;;;;;;;;;;21.63;30.26;98007.22;5023034;28;1119;-76
2024/04/05 01:21:02;;;;;;;;;;;;;;;21.61;30.13;98009.72;5039587;28;1996;-76
2024/04/05 01:23:28;;;;;;;;;;;;;;;21.72;30.10;98003.75;5039549;28;980;-76
2024/04/05 01:25:53;;;;;;;;;;;;;;;21.70;30.02;98004.19;4999622;28;1112;-76
2024/04/05 01:28:19;;;;;;;;;;;;;;;21.75;29.77;98009.31;5016333;28;1067;-76
2024/04/05 01:30:45;;;;;;;;;;;;;;;21.64;30.28;98003.16;4999972;28;1073;-75
2024/04/05 01:33:10;;;;;;;;;;;;;;;21.69;30.10;97999.78;4980244;28;1245;-76
2024/04/05 01:35:37;;;;;;;;;;;;;;;21.74;29.96;97996.41;4996557;28;1109;-76
2024/04/05 01:38:03;;;;;;;;;;;;;;;21.96;29.62;97999.44;4979896;28;1199;-76
2024/04/05 01:40:28;;;;;;;;;;;;;;;21.75;29.68;97997.97;4963822;28;1891;-76
2024/04/05 01:42:54;;;;;;;;;;;;;;;21.65;30.26;97993.41;5011081;28;1000;-76
2024/04/05 01:45:20;;;;;;;;;;;;;;;21.78;29.96;98002.75;4999749;28;1018;-76
2024/04/05 01:47:45;;;;;;;;;;;;;;;21.83;29.86;98004.25;5015482;28;1207;-76
2024/04/05 01:50:12;;;;;;;;;;;;;;;21.75;30.06;98009.31;4999399;28;1070;-76
2024/04/05 01:52:38;;;;;;;;;;;;;;;21.78;30.02;98002.75;4999357;28;1015;-76
2024/04/05 01:55:04;;;;;;;;;;;;;;;21.65;30.32;97996.22;4999357;28;926;-76
2024/04/05 01:57:29;;;;;;;;;;;;;;;21.73;30.10;97994.03;5015329;28;965;-76
2024/04/05 01:59:55;;;;;;;;;;;;;;;21.78;30.05;97999.94;4983117;28;1907;-76
2024/04/05 02:02:21;;;;;;;;;;;;;;;21.58;30.54;98000.06;5001149;28;948;-76
2024/04/05 02:04:49;;;;;;;;;;;;;;;21.50;30.50;98003.50;5046243;28;914;-76
2024/04/05 02:07:15;;;;;;;;;;;;;;;21.71;30.22;98002.97;5089912;28;970;-76
2024/04/05 02:09:40;;;;;;;;;;;;;;;21.91;29.80;97999.19;5056545;28;1318;-76
2024/04/05 02:12:06;;;;;;;;;;;;;;;22.05;29.61;97999.56;5057544;28;903;-76
2024/04/05 02:14:32;;;;;;;;;;;;;;;21.75;29.97;97997.97;5057662;28;919;-76
2024/04/05 02:16:58;;;;;;;;;;;;;;;21.62;30.30;97997.13;5090070;28;1108;-76
2024/04/05 02:19:23;;;;;;;;;;;;;;;21.67;29.88;98001.47;5089667;28;1906;-76
2024/04/05 02:21:49;;;;;;;;;;;;;;;21.44;30.41;98000.44;5091510;28;946;-75
2024/04/05 02:24:15;;;;;;;;;;;;;;;21.82;29.91;98009.13;5041686;28;992;-76
2024/04/05 02:26:40;;;;;;;;;;;;;;;21.66;29.92;98003.50;5057795;28;1263;-76
2024/04/05 02:29:06;;;;;;;;;;;;;;;21.81;29.79;98012.38;5075039;28;1078;-76
2024/04/05 02:31:31;;;;;;;;;;;;;;;21.67;30.07;98002.25;5057807;28;1182;-76
2024/04/05 02:33:57;;;;;;;;;;;;;;;21.73;30.14;98002.50;5074563;28;951;-76
2024/04/05 02:36:23;;;;;;;;;;;;;;;21.85;29.85;98013.88;5057772;28;988;-76
2024/04/05 02:38:48;;;;;;;;;;;;;;;21.93;29.61;98014.50;5034736;28;1132;-76
2024/04/05 02:41:14;;;;;;;;;;;;;;;21.60;30.25;98008.09;5051089;28;1973;-76
2024/04/05 02:43:40;;;;;;;;;;;;;;;21.70;30.29;98006.22;5034587;28;1004;-76
2024/04/05 02:46:05;;;;;;;;;;;;;;;21.63;30.34;98010.06;5050990;28;938;-76
2024/04/05 02:48:31;;;;;;;;;;;;;;;21.67;30.23;98018.47;5050901;28;933;-76
2024/04/05 02:50:57;;;;;;;;;;;;;;;21.89;29.70;98013.00;5034826;28;960;-75
2024/04/05 02:53:24;;;;;;;;;;;;;;;21.93;29.88;98019.38;5017493;28;1465;-76
2024/04/05 02:55:49;;;;;;;;;;;;;;;21.64;30.37;98008.81;5018164;28;994;-76
2024/04/05 02:58:15;;;;;;;;;;;;;;;21.75;30.15;98014.19;5018179;28;1011;-76
2024/04/05 03:00:41;;;;;;;;;;;;;;;21.51;30.59;98007.97;5017771;28;1906;-76
2024/04/05 03:03:06;;;;;;;;;;;;;;;21.51;30.63;98013.63;5034047;28;982;-77
2024/04/05 03:05:32;;;;;;;;;;;;;;;21.57;30.45;98021.13;5017878;28;987;-76
2024/04/05 03:07:57;;;;;;;;;;;;;;;21.96;29.83;98018.47;5017355;28;1342;-76
2024/04/05 03:10:23;;;;;;;;;;;;;;;21.66;30.00;98023.34;5017523;28;942;-76
2024/04/05 03:12:52;;;;;;;;;;;;;;;21.97;29.81;98025.75;5017764;28;913;-76
2024/04/05 03:15:17;;;;;;;;;;;;;;;21.58;30.40;98025.53;4998848;28;980;-76
2024/04/05 03:17:46;;;;;;;;;;;;;;;21.77;30.21;98023.03;5034112;28;1069;-76
2024/04/05 03:20:14;;;;;;;;;;;;;;;21.58;30.44;98028.38;5000837;28;1965;-76
2024/04/05 03:22:40;;;;;;;;;;;;;;;21.84;29.85;98020.81;5034032;28;1069;-76
2024/04/05 03:25:06;;;;;;;;;;;;;;;21.84;29.91;98023.63;4985223;28;1438;-76
2024/04/05 03:27:32;;;;;;;;;;;;;;;21.87;29.73;98026.84;4995409;28;1138;-76
2024/04/05 03:29:57;;;;;;;;;;;;;;;21.84;29.79;98032.13;4975652;28;1267;-75
2024/04/05 03:32:23;;;;;;;;;;;;;;;21.62;30.12;98033.16;5012778;28;1715;-76
2024/04/05 03:34:48;;;;;;;;;;;;;;;21.83;29.87;98027.72;5006133;28;1783;-76
2024/04/05 03:37:14;;;;;;;;;;;;;;;21.84;29.84;98026.47;5013238;28;1216;-76
2024/04/05 03:39:40;;;;;;;;;;;;;;;21.94;29.75;98032.28;5013500;28;1971;-76
2024/04/05 03:42:05;;;;;;;;;;;;;;;21.97;30.02;98037.06;4997481;28;1307;-76
2024/04/05 03:44:31;;;;;;;;;;;;;;;21.93;30.04;98039.22;5013582;28;1011;-76
2024/04/05 03:46:56;;;;;;;;;;;;;;;21.70;30.17;98041.00;5043634;28;960;-76
2024/04/05 03:49:22;;;;;;;;;;;;;;;21.41;30.38;98011.84;5052671;28;1397;-76
2024/04/05 03:51:48;;;;;;;;;;;;;;;21.69;30.30;98047.13;5069817;28;1451;-76
2024/04/05 03:54:13;;;;;;;;;;;;;;;21.91;30.07;98050.16;5036793;28;1059;-76
2024/04/05 03:56:39;;;;;;;;;;;;;;;21.76;30.21;98050.56;5020265;28;958;-76
2024/04/05 03:59:05;;;;;;;;;;;;;;;21.89;29.98;98052.66;5036685;28;1044;-76
2024/04/05 04:01:31;;;;;;;;;;;;;;;21.85;29.89;98053.53;5019774;28;1913;-76
2024/04/05 04:03:57;;;;;;;;;;;;;;;21.97;29.86;98060.53;5032808;28;1084;-75
2024/04/05 04:06:22;;;;;;;;;;;;;;;21.68;30.18;98066.16;5020601;28;1334;-76
2024/04/05 04:08:48;;;;;;;;;;;;;;;21.84;30.21;98068.97;5036271;28;989;-75
2024/04/05 04:11:13;;;;;;;;;;;;;;;21.84;30.13;98073.81;5053203;28;1072;-76
2024/04/05 04:13:39;;;;;;;;;;;;;;;21.74;30.14;98070.03;5034825;28;1017;-75
2024/04/05 04:16:05;;;;;;;;;;;;;;;21.83;30.35;98075.88;5033369;28;940;-76
2024/04/05 04:18:31;;;;;;;;;;;;;;;21.84;30.31;98080.28;5033255;28;1002;-75
2024/04/05 04:20:57;;;;;;;;;;;;;;;21.90;30.07;98082.56;5017223;28;1906;-76
2024/04/05 04:23:22;;;;;;;;;;;;;;;21.85;30.05;98087.53;5033288;28;1562;-75
2024/04/05 04:25:49;;;;;;;;;;;;;;;21.62;30.39;98084.13;5052925;28;988;-75
2024/04/05 04:28:16;;;;;;;;;;;;;;;21.67;30.19;98095.72;5019962;28;1187;-76
2024/04/05 04:30:45;;;;;;;;;;;;;;;21.74;30.42;98098.34;5053339;28;981;-76
2024/04/05 04:33:13;;;;;;;;;;;;;;;21.93;30.09;98104.38;5068730;28;1057;-76
2024/04/05 04:35:42;;;;;;;;;;;;;;;21.83;30.25;98098.53;5056415;28;1067;-75
2024/04/05 04:38:08;;;;;;;;;;;;;;;22.01;30.07;98105.75;5055669;28;1575;-75
2024/04/05 04:40:34;;;;;;;;;;;;;;;21.74;30.07;98112.50;5055803;28;1982;-76
2024/04/05 04:43:00;;;;;;;;;;;;;;;21.80;30.29;98116.41;5072821;28;988;-75
2024/04/05 04:45:25;;;;;;;;;;;;;;;21.81;30.10;98115.19;5055996;28;986;-75
2024/04/05 04:47:51;;;;;;;;;;;;;;;21.38;30.76;98120.28;5072955;28;911;-75
2024/04/05 04:50:16;;;;;;;;;;;;;;;21.70;30.54;98114.63;5058765;28;1113;-75
2024/04/05 04:52:42;;;;;;;;;;;;;;;21.96;30.02;98120.47;5064285;28;1577;-75
2024/04/05 04:55:10;;;;;;;;;;;;;;;22.00;29.74;98115.50;5023323;28;1457;-75
2024/04/05 04:57:36;;;;;;;;;;;;;;;21.90;30.04;98125.06;5023728;28;937;-75
2024/04/05 05:00:02;;;;;;;;;;;;;;;21.70;30.30;98114.63;5039976;28;1977;-75
2024/04/05 05:02:28;;;;;;;;;;;;;;;21.59;30.72;98125.44;5039213;28;1801;-76
2024/04/05 05:04:53;;;;;;;;;;;;;;;21.41;30.89;98125.09;5023243;28;959;-76
2024/04/05 05:07:19;;;;;;;;;;;;;;;21.53;30.72;98127.22;5024003;28;1025;-75
2024/04/05 05:09:45;;;;;;;;;;;;;;;21.90;29.89;98123.03;5019670;28;873;-75
2024/04/05 05:12:10;;;;;;;;;;;;;;;21.77;30.07;98131.47;5055235;28;1423;-76
2024/04/05 05:14:36;;;;;;;;;;;;;;;21.72;30.30;98129.16;5039323;28;1005;-76
2024/04/05 05:17:01;;;;;;;;;;;;;;;21.69;30.31;98132.88;5022893;28;1220;-75
2024/04/05 05:19:27;;;;;;;;;;;;;;;21.67;30.27;98132.53;5055948;28;1898;-76
2024/04/05 05:21:53;;;;;;;;;;;;;;;21.91;29.96;98141.63;5054817;28;1293;-76
2024/04/05 05:24:18;;;;;;;;;;;;;;;21.67;30.17;98138.19;5001376;28;1430;-76
2024/04/05 05:26:44;;;;;;;;;;;;;;;21.79;30.28;98133.84;4996585;28;1107;-76
2024/04/05 05:29:09;;;;;;;;;;;;;;;21.77;29.86;98139.16;4980164;28;1284;-76
2024/04/05 05:31:35;;;;;;;;;;;;;;;21.84;29.78;98131.28;4995899;28;1467;-76
2024/04/05 05:34:00;;;;;;;;;;;;;;;21.73;30.32;98136.41;4980207;28;1006;-75
2024/04/05 05:36:26;;;;;;;;;;;;;;;21.60;30.42;98138.34;4979924;28;1045;-75
2024/04/05 05:38:52;;;;;;;;;;;;;;;21.70;30.45;98142.94;4979977;28;1225;-75
2024/04/05 05:41:18;;;;;;;;;;;;;;;21.70;30.25;98148.63;4960500;28;1967;-75
2024/04/05 05:43:44;;;;;;;;;;;;;;;21.78;30.14;98150.03;4956919;28;1332;-76
2024/04/05 05:46:09;;;;;;;;;;;;;;;21.77;30.19;98154.13;4941498;29;959;-76
2024/04/05 05:48:35;;;;;;;;;;;;;;;21.72;30.32;98146.16;4925734;29;979;-75
2024/04/05 05:51:00;;;;;;;;;;;;;;;21.84;29.99;98148.28;4960715;28;972;-75
2024/04/05 05:53:26;;;;;;;;;;;;;;;21.57;30.49;98150.56;4990613;28;1426;-76
2024/04/05 05:55:52;;;;;;;;;;;;;;;21.57;30.61;98153.41;4994336;28;1386;-76
2024/04/05 05:58:17;;;;;;;;;;;;;;;21.74;30.21;98155.00;5030131;28;998;-76
2024/04/05 06:00:43;;;;;;;;;;;;;;;21.81;30.27;98149.16;5034215;28;1910;-76
2024/04/05 06:03:08;;;;;;;;;;;;;;;21.67;30.53;98155.19;5031056;28;1440;-76
2024/04/05 06:05:34;;;;;;;;;;;;;;;21.84;30.41;98153.94;5055431;28;1177;-76
2024/04/05 06:08:00;;;;;;;;;;;;;;;22.00;30.26;98144.63;5038373;28;1017;-76
2024/04/05 06:10:25;;;;;;;;;;;;;;;21.36;31.24;98154.72;5038230;28;1055;-76
2024/04/05 06:12:51;;;;;;;;;;;;;;;21.74;30.45;98146.50;5028577;28;1476;-76
2024/04/05 06:15:16;;;;;;;;;;;;;;;21.79;30.66;98153.66;5018373;28;1094;-76
2024/04/05 06:17:45;;;;;;;;;;;;;;;21.72;30.46;98157.47;5003557;28;1291;-76
2024/04/05 06:20:11;;;;;;;;;;;;;;;21.75;30.41;98155.78;5039583;28;1914;-76
2024/04/05 06:22:37;;;;;;;;;;;;;;;21.76;30.40;98166.69;5007367;28;1422;-75
2024/04/05 06:25:04;;;;;;;;;;;;;;;21.52;30.84;98170.91;5052250;28;916;-76
2024/04/05 06:27:30;;;;;;;;;;;;;;;21.69;30.59;98175.34;5037341;28;901;-76
2024/04/05 06:29:56;;;;;;;;;;;;;;;21.74;30.70;98157.81;5036983;28;1224;-76
2024/04/05 06:32:22;;;;;;;;;;;;;;;21.83;30.26;98169.34;5069076;28;1485;-76
2024/04/05 06:34:48;;;;;;;;;;;;;;;21.90;30.23;98174.03;5036140;28;1137;-76
2024/04/05 06:37:13;;;;;;;;;;;;;;;21.76;30.54;98175.19;5052328;28;1063;-76
2024/04/05 06:39:40;;;;;;;;;;;;;;;21.84;30.54;98176.59;5053438;28;2049;-75
2024/04/05 06:42:06;;;;;;;;;;;;;;;21.88;30.39;98181.38;5071914;28;1036;-76
2024/04/05 06:44:35;;;;;;;;;;;;;;;21.78;30.40;98189.69;5057242;28;994;-76
2024/04/05 06:47:04;;;;;;;;;;;;;;;21.92;30.33;98184.94;5088259;28;914;-76
2024/04/05 06:49:30;;;;;;;;;;;;;;;21.69;30.79;98188.72;5071501;28;1268;-76
2024/04/05 06:51:56;;;;;;;;;;;;;;;21.39;31.19;98195.47;5068869;28;883;-76
2024/04/05 06:54:21;;;;;;;;;;;;;;;21.58;30.78;98200.28;5036901;28;976;-76
2024/04/05 06:56:47;;;;;;;;;;;;;;;21.88;30.37;98201.22;5068632;28;1254;-76
2024/04/05 06:59:13;;;;;;;;;;;;;;;22.05;30.23;98214.94;5036645;28;912;-76
2024/04/05 07:01:39;;;;;;;;;;;;;;;21.74;30.76;98211.63;5053325;28;1969;-75
2024/04/05 07:04:05;;;;;;;;;;;;;;;21.64;30.90;98212.69;5036191;28;900;-76
2024/04/05 07:06:32;;;;;;;;;;;;;;;21.60;30.71;98217.63;5052123;28;1426;-76
2024/04/05 07:08:58;;;;;;;;;;;;;;;21.89;30.50;98217.75;5073771;28;988;-75
2024/04/05 07:11:23;;;;;;;;;;;;;;;21.91;30.39;98220.16;5055877;28;1396;-76
2024/04/05 07:13:49;;;;;;;;;;;;;;;21.83;30.66;98226.00;5077299;28;1068;-76
2024/04/05 07:16:15;;;;;;;;;;;;;;;21.83;30.51;98220.31;5077213;28;1240;-76
2024/04/05 07:18:41;;;;;;;;;;;;;;;21.91;30.37;98217.31;5077224;28;1007;-75
2024/04/05 07:21:07;;;;;;;;;;;;;;;21.65;30.87;98219.94;5092544;28;1905;-76
2024/04/05 07:23:33;;;;;;;;;;;;;;;21.82;30.48;98217.94;5073323;28;1462;-75
2024/04/05 07:25:59;;;;;;;;;;;;;;;21.77;30.46;98216.44;5050024;28;1554;-76
2024/04/05 07:28:25;;;;;;;;;;;;;;;21.76;30.62;98220.50;5023896;28;1190;-76
2024/04/05 07:30:50;;;;;;;;;;;;;;;21.60;31.08;98223.28;5091636;28;1675;-76
2024/04/05 07:33:16;;;;;;;;;;;;;;;21.76;30.76;98229.00;5056823;28;1574;-75
2024/04/05 07:35:41;;;;;;;;;;;;;;;21.75;30.55;98230.22;5056616;28;989;-76
2024/04/05 07:38:07;;;;;;;;;;;;;;;21.85;30.60;98226.34;5056805;28;1261;-77
2024/04/05 07:40:36;;;;;;;;;;;;;;;21.85;30.45;98234.03;5058690;28;1988;-75
2024/04/05 07:43:02;;;;;;;;;;;;;;;21.69;30.51;98231.19;5053128;28;1715;-76
2024/04/05 07:45:28;;;;;;;;;;;;;;;21.66;30.59;98227.22;5071663;28;899;-76
2024/04/05 07:47:54;;;;;;;;;;;;;;;21.56;30.85;98228.25;5053623;28;947;-75
2024/04/05 07:50:19;;;;;;;;;;;;;;;21.52;30.61;98227.53;5020428;28;977;-76
2024/04/05 07:52:46;;;;;;;;;;;;;;;21.56;30.64;98225.44;5036808;28;1035;-76
2024/04/05 07:55:13;;;;;;;;;;;;;;;21.38;31.01;98233.50;5020664;28;981;-76
2024/04/05 07:57:41;;;;;;;;;;;;;;;21.65;30.51;98234.09;5052517;28;1694;-75
2024/04/05 08:00:13;;;;;;;;;;;;;;;21.69;30.40;98229.16;5090281;28;1898;-76
2024/04/05 08:02:46;;;;;;;;;;;;;;;21.59;30.46;98233.81;5074430;28;949;-76
2024/04/05 08:05:12;;;;;;;;;;;;;;;21.72;30.29;98233.16;5073093;28;1018;-76
2024/04/05 08:07:37;;;;;;;;;;;;;;;21.62;30.32;98240.66;5056051;28;1509;-76
2024/04/05 08:10:03;;;;;;;;;;;;;;;21.80;30.04;98238.19;5090309;28;1450;-76
2024/04/05 08:12:29;;;;;;;;;;;;;;;21.68;30.52;98240.94;5073308;28;1326;-76
2024/04/05 08:14:55;;;;;;;;;;;;;;;21.60;30.44;98245.94;5066009;28;1461;-76
2024/04/05 08:17:21;;;;;;;;;;;;;;;21.73;30.22;98244.03;5056721;28;1242;-76
2024/04/05 08:19:49;;;;;;;;;;;;;;;21.77;30.40;98249.63;5089811;28;1914;-76
2024/04/05 08:22:15;;;;;;;;;;;;;;;21.76;30.16;98237.50;5056591;28;1091;-76
2024/04/05 08:24:40;;;;;;;;;;;;;;;21.28;31.24;98240.97;5066984;28;1493;-76
2024/04/05 08:27:06;;;;;;;;;;;;;;;21.43;30.82;98238.66;5053861;28;1033;-76
2024/04/05 08:29:32;;;;;;;;;;;;;;;21.71;30.35;98246.53;5054067;28;1132;-75
2024/04/05 08:31:57;;;;;;;;;;;;;;;21.67;30.43;98248.63;5037133;28;990;-76
2024/04/05 08:34:23;;;;;;;;;;;;;;;21.68;30.27;98255.88;5022257;28;1440;-76
2024/04/05 08:36:49;;;;;;;;;;;;;;;21.61;30.43;98260.94;5036359;28;1454;-76
2024/04/05 08:39:18;;;;;;;;;;;;;;;21.63;30.26;98253.56;5020379;28;1874;-76
2024/04/05 08:41:45;;;;;;;;;;;;;;;21.77;30.34;98255.28;5002021;28;1911;-76
2024/04/05 08:44:12;;;;;;;;;;;;;;;21.84;30.20;98264.41;5043427;28;1410;-76
2024/04/05 08:46:41;;;;;;;;;;;;;;;21.57;30.41;98258.16;5031040;28;1082;-76
2024/04/05 08:49:06;;;;;;;;;;;;;;;21.63;30.21;98262.06;5002211;28;1133;-76
2024/04/05 08:51:35;;;;;;;;;;;;;;;21.78;30.32;98263.34;5025841;28;1170;-76
2024/04/05 08:54:01;;;;;;;;;;;;;;;21.92;29.73;98255.75;5020666;28;1342;-75
2024/04/05 08:56:28;;;;;;;;;;;;;;;21.70;30.18;98261.09;5054272;28;1423;-76
2024/04/05 08:58:54;;;;;;;;;;;;;;;21.92;29.97;98267.09;5020340;28;1122;-76
2024/04/05 09:01:20;;;;;;;;;;;;;;;21.49;30.81;98268.03;5036834;28;1883;-76
2024/04/05 09:03:49;;;;;;;;;;;;;;;21.90;30.07;98272.38;5023664;28;1021;-76
2024/04/05 09:06:15;;;;;;;;;;;;;;;21.76;29.94;98260.16;5053042;28;1447;-76
2024/04/05 09:08:44;;;;;;;;;;;;;;;21.67;30.37;98262.78;5076233;28;999;-76
2024/04/05 09:11:10;;;;;;;;;;;;;;;21.58;30.68;98265.41;5043309;28;1294;-76
2024/04/05 09:13:35;;;;;;;;;;;;;;;21.50;30.87;98261.13;5026563;28;1340;-76
2024/04/05 09:16:03;;;;;;;;;;;;;;;21.44;30.60;98271.38;5077898;28;1373;-76
2024/04/05 09:18:29;;;;;;;;;;;;;;;21.51;30.65;98262.75;5079827;28;1100;-76
2024/04/05 09:20:58;;;;;;;;;;;;;;;21.62;30.61;98265.34;5096808;28;1981;-76
2024/04/05 09:23:23;;;;;;;;;;;;;;;21.85;29.96;98268.81;5080413;28;993;-76
2024/04/05 09:26:01;;;;;;;;;;;;;;;21.67;30.25;98274.13;5095818;28;1490;-76
2024/04/05 09:28:29;;;;;;;;;;;;;;;21.59;30.43;98270.63;5079658;28;936;-76
2024/04/05 09:30:55;;;;;;;;;;;;;;;21.69;30.31;98268.00;5079596;28;1107;-76
2024/04/05 09:33:21;;;;;;;;;;;;;;;21.71;30.41;98277.69;5079346;28;947;-76
2024/04/05 09:35:47;;;;;;;;;;;;;;;21.78;30.32;98271.03;5060481;28;1333;-76
2024/04/05 09:38:15;;;;;;;;;;;;;;;21.81;30.15;98273.81;5062865;28;1191;-77
2024/04/05 09:40:41;;;;;;;;;;;;;;;21.74;30.28;98279.63;5058389;28;1965;-75
2024/04/05 09:43:08;;;;;;;;;;;;;;;21.81;30.06;98267.31;5075905;28;1229;-76
2024/04/05 09:45:34;;;;;;;;;;;;;;;21.68;30.51;98274.91;5089966;28;1382;-76
2024/04/05 09:47:59;;;;;;;;;;;;;;;21.47;30.81;98270.53;5063513;28;1293;-76
2024/04/05 09:50:25;;;;;;;;;;;;;;;21.58;30.36;98276.75;5055889;28;982;-76
2024/04/05 09:52:53;;;;;;;;;;;;;;;21.64;30.48;98275.00;5039217;28;1217;-76
2024/04/05 09:55:28;;;;;;;;;;;;;;;21.67;30.21;98279.78;5055600;28;1523;-76
2024/04/05 09:57:54;;;;;;;;;;;;;;;21.91;30.01;98288.94;5023168;28;953;-75
2024/04/05 10:00:20;;;;;;;;;;;;;;;21.61;30.08;98275.88;5039043;28;1902;-76
2024/04/05 10:02:46;;;;;;;;;;;;;;;21.88;29.99;98281.31;5039115;28;897;-76
2024/04/05 10:05:24;;;;;;;;;;;;;;;21.72;30.24;98279.25;5038685;28;1411;-76
2024/04/05 10:07:50;;;;;;;;;;;;;;;21.64;30.41;98272.16;5087784;28;1421;-76
2024/04/05 10:10:16;;;;;;;;;;;;;;;21.74;30.22;98285.28;5075270;28;998;-76
2024/04/05 10:12:42;;;;;;;;;;;;;;;21.63;30.28;98290.38;5092239;28;969;-76
2024/04/05 10:15:09;;;;;;;;;;;;;;;21.42;30.58;98296.53;5055542;28;1423;-76
2024/04/05 10:17:34;;;;;;;;;;;;;;;21.81;29.83;98284.31;5089239;28;1103;-76
2024/04/05 10:20:05;;;;;;;;;;;;;;;21.64;29.98;98275.00;5057394;28;1906;-76
2024/04/05 10:22:30;;;;;;;;;;;;;;;21.32;30.78;98276.50;5088397;28;2091;-76
2024/04/05 10:24:56;;;;;;;;;;;;;;;21.75;30.30;98264.22;5056405;28;1418;-76
2024/04/05 10:27:22;;;;;;;;;;;;;;;21.71;30.16;98269.19;5089682;28;995;-76
2024/04/05 10:30:06;;;;;;;;;;;;;;;21.70;30.32;98270.41;5089634;28;918;-76
2024/04/05 10:32:33;;;;;;;;;;;;;;;21.61;30.54;98280.75;5087969;28;1045;-76
2024/04/05 10:35:06;;;;;;;;;;;;;;;21.59;30.28;98272.66;5087705;28;1315;-76
2024/04/05 10:37:33;;;;;;;;;;;;;;;21.66;30.33;98269.69;5055992;28;1108;-76
2024/04/05 10:40:15;;;;;;;;;;;;;;;21.64;30.41;98268.53;5056957;28;2019;-76
2024/04/05 10:42:40;;;;;;;;;;;;;;;21.63;30.25;98278.25;5086866;28;969;-76
2024/04/05 10:45:07;;;;;;;;;;;;;;;21.56;30.39;98267.91;5088291;28;1481;-76
2024/04/05 10:47:33;;;;;;;;;;;;;;;21.76;30.13;98263.00;5056104;28;1562;-76
2024/04/05 10:50:08;;;;;;;;;;;;;;;21.67;30.43;98265.63;5055785;28;949;-76
2024/04/05 10:52:36;;;;;;;;;;;;;;;21.51;30.73;98260.72;5055525;28;958;-76
2024/04/05 10:55:09;;;;;;;;;;;;;;;21.88;30.09;98240.88;5049620;28;1534;-76
2024/04/05 10:57:35;;;;;;;;;;;;;;;21.95;30.09;98254.84;5035503;28;954;-76
2024/04/05 11:00:03;;;;;;;;;;;;;;;21.65;30.26;98259.59;5014676;28;1977;-76
2024/04/05 11:02:29;;;;;;;;;;;;;;;21.75;30.36;98266.25;4998628;28;1015;-76
2024/04/05 11:05:06;;;;;;;;;;;;;;;21.55;30.30;98264.28;5020117;28;1468;-75
2024/04/05 11:07:32;;;;;;;;;;;;;;;21.58;30.30;98271.09;5018156;28;1068;-75
2024/04/05 11:09:58;;;;;;;;;;;;;;;21.68;30.31;98263.59;5034456;28;1109;-75
2024/04/05 11:12:24;;;;;;;;;;;;;;;21.82;30.13;98269.72;5033750;28;1494;-75
2024/04/05 11:14:50;;;;;;;;;;;;;;;21.83;30.07;98264.84;5017779;28;1105;-75
2024/04/05 11:17:17;;;;;;;;;;;;;;;21.67;30.20;98268.47;5034388;28;1083;-75
2024/04/05 11:19:43;;;;;;;;;;;;;;;21.66;30.34;98269.69;5034466;28;1910;-75
2024/04/05 11:22:08;;;;;;;;;;;;;;;21.59;30.33;98273.47;5032583;28;1467;-75
2024/04/05 11:24:34;;;;;;;;;;;;;;;21.44;30.57;98272.19;5019350;28;1446;-75
2024/04/05 11:27:00;;;;;;;;;;;;;;;21.40;30.50;98279.16;5014261;28;1070;-75
2024/04/05 11:29:26;;;;;;;;;;;;;;;21.55;30.48;98278.44;5014464;28;954;-75
2024/04/05 11:31:51;;;;;;;;;;;;;;;21.74;29.98;98285.28;5033003;28;1415;-75
2024/04/05 11:34:17;;;;;;;;;;;;;;;21.76;29.95;98284.81;5036509;28;922;-75
2024/04/05 11:36:42;;;;;;;;;;;;;;;21.81;30.05;98279.47;5036555;28;929;-75
2024/04/05 11:39:09;;;;;;;;;;;;;;;21.37;30.76;98285.72;5036439;28;1061;-74
2024/04/05 11:41:34;;;;;;;;;;;;;;;21.51;30.34;98274.09;5066725;28;1918;-75
2024/04/05 11:44:00;;;;;;;;;;;;;;;21.63;30.18;98279.06;5036380;28;1041;-75
2024/04/05 11:46:26;;;;;;;;;;;;;;;21.58;30.38;98282.41;5068187;28;1055;-75
2024/04/05 11:48:52;;;;;;;;;;;;;;;21.56;30.42;98282.84;5034686;28;869;-75
2024/04/05 11:51:17;;;;;;;;;;;;;;;21.88;29.68;98289.03;5050480;28;1116;-75
2024/04/05 11:53:43;;;;;;;;;;;;;;;21.30;31.00;98287.47;5051589;28;1317;-75
2024/04/05 11:56:09;;;;;;;;;;;;;;;21.76;29.67;98277.16;5046279;28;1511;-75
2024/04/05 11:58:35;;;;;;;;;;;;;;;21.50;30.31;98275.28;5034393;28;1438;-75
2024/04/05 12:01:00;;;;;;;;;;;;;;;21.42;30.54;98285.19;5036215;28;1918;-75
2024/04/05 12:03:26;;;;;;;;;;;;;;;21.89;29.76;98268.75;5051099;28;1122;-75
2024/04/05 12:05:51;;;;;;;;;;;;;;;21.77;29.94;98273.09;5085978;28;1401;-75
2024/04/05 12:08:17;;;;;;;;;;;;;;;21.58;30.16;98271.09;5055996;28;973;-75
2024/04/05 12:10:42;;;;;;;;;;;;;;;21.77;30.08;98267.41;5055823;28;979;-75
2024/04/05 12:13:08;;;;;;;;;;;;;;;21.74;30.00;98265.44;5088146;28;1024;-75
2024/04/05 12:15:37;;;;;;;;;;;;;;;21.71;30.05;98265.53;5054965;28;1439;-75
2024/04/05 12:18:05;;;;;;;;;;;;;;;21.73;30.11;98261.03;5067306;28;937;-75
2024/04/05 12:20:31;;;;;;;;;;;;;;;21.84;29.59;98261.56;5034339;28;1910;-74
2024/04/05 12:22:57;;;;;;;;;;;;;;;21.68;30.02;98255.09;5067595;28;933;-75
2024/04/05 12:25:22;;;;;;;;;;;;;;;21.41;30.37;98255.28;5036374;28;1361;-75
2024/04/05 12:27:48;;;;;;;;;;;;;;;21.35;30.38;98252.19;5034722;28;1044;-74
2024/04/05 12:30:14;;;;;;;;;;;;;;;21.48;30.38;98258.75;5018114;28;949;-75
2024/04/05 12:32:40;;;;;;;;;;;;;;;21.48;30.39;98250.25;5034788;28;916;-75
2024/04/05 12:35:06;;;;;;;;;;;;;;;21.62;30.21;98260.47;5034542;28;1455;-75
2024/04/05 12:37:37;;;;;;;;;;;;;;;21.77;29.82;98244.75;5050676;28;1068;-75
2024/04/05 12:40:17;;;;;;;;;;;;;;;21.66;29.77;98252.72;5035652;28;1989;-75
2024/04/05 12:42:43;;;;;;;;;;;;;;;21.60;30.12;98251.59;5073049;28;1077;-75
2024/04/05 12:45:09;;;;;;;;;;;;;;;21.75;29.90;98246.41;5067710;28;1353;-75
2024/04/05 12:47:37;;;;;;;;;;;;;;;21.69;30.00;98248.97;5093021;28;1040;-75
2024/04/05 12:50:03;;;;;;;;;;;;;;;21.56;30.04;98259.41;5076805;28;932;-75
2024/04/05 12:52:28;;;;;;;;;;;;;;;21.64;29.95;98252.34;5036184;28;1261;-75
2024/04/05 12:54:54;;;;;;;;;;;;;;;21.89;29.25;98259.47;5019198;28;1468;-75